Time;durP1;ratioP1;P1;durP2;ratioP2;P2;SDS_P1;SDS_P2;PMS_P1;PMS_P2;Temp;Humidity;BMP_temperature;BMP_pressure;BME280_temperature;BME280_humidity;BME280_pressure;Samples;Min_cycle;Max_cycle;Signal;HPM_P1;HPM_P2
2023/07/21 00:00:14;;;;;;;;;2.00;2.00;;;;;22.27;41.25;101077.56;5022562;28;45336;-46
2023/07/21 00:02:41;;;;;;;;;2.00;2.00;;;;;22.26;41.27;101082.09;5022336;28;45575;-45
2023/07/21 00:05:06;;;;;;;;;2.00;2.00;;;;;22.25;40.83;101079.53;5021998;28;46003;-49
2023/07/21 00:07:32;;;;;;;;;2.33;2.33;;;;;22.26;41.04;101078.56;5021891;28;45333;-49
2023/07/21 00:09:59;;;;;;;;;2.00;2.00;;;;;22.25;40.99;101074.13;5022107;28;45517;-48
2023/07/21 00:12:24;;;;;;;;;0.00;0.00;;;;;22.23;41.01;101066.16;5022029;28;45332;-46
2023/07/21 00:14:50;;;;;;;;;1.00;1.00;;;;;22.23;41.27;101066.16;5021800;28;49912;-48
2023/07/21 00:17:15;;;;;;;;;1.00;1.00;;;;;22.19;40.94;101062.03;5020830;28;45682;-49
2023/07/21 00:19:41;;;;;;;;;1.00;1.00;;;;;22.18;41.21;101062.19;5021150;28;66541;-48
2023/07/21 00:22:07;;;;;;;;;2.33;2.00;;;;;22.16;41.10;101070.44;5022061;28;45353;-45
2023/07/21 00:24:32;;;;;;;;;0.00;0.00;;;;;22.15;40.75;101066.03;5019944;28;45376;-48
2023/07/21 00:27:01;;;;;;;;;4.00;2.00;;;;;22.15;40.76;101063.34;5021590;28;45416;-45
2023/07/21 00:29:26;;;;;;;;;2.00;2.00;;;;;22.14;40.83;101056.19;5022098;28;45358;-44
2023/07/21 00:31:51;;;;;;;;;1.00;1.00;;;;;22.13;40.58;101062.63;5021989;28;45363;-46
2023/07/21 00:34:17;;;;;;;;;1.67;1.67;;;;;22.13;40.98;101059.91;5020653;28;74661;-45
2023/07/21 00:36:45;;;;;;;;;3.00;2.67;;;;;22.08;40.62;101068.44;5020991;28;45250;-49
2023/07/21 00:39:11;;;;;;;;;2.00;2.00;;;;;22.04;40.89;101075.16;5021625;28;45435;-45
2023/07/21 00:41:36;;;;;;;;;1.67;1.33;;;;;22.04;40.96;101071.63;5021696;28;45289;-46
2023/07/21 00:44:02;;;;;;;;;1.00;1.00;;;;;22.01;40.80;101075.47;5020697;28;69985;-48
2023/07/21 00:46:27;;;;;;;;;1.00;1.00;;;;;21.99;40.88;101072.03;5020406;28;45480;-46
2023/07/21 00:48:53;;;;;;;;;3.00;3.00;;;;;21.95;40.67;101071.50;5019479;28;65477;-45
2023/07/21 00:51:19;;;;;;;;;2.33;1.33;;;;;21.92;41.24;101085.31;5020266;28;45592;-45
2023/07/21 00:53:45;;;;;;;;;1.00;1.00;;;;;21.91;41.05;101072.75;5020350;28;67912;-46
2023/07/21 00:56:11;;;;;;;;;3.33;2.33;;;;;21.86;41.87;101072.34;5020370;28;68053;-46
2023/07/21 00:58:37;;;;;;;;;1.00;1.00;;;;;21.85;41.74;101062.53;5021437;28;45444;-45
2023/07/21 01:01:02;;;;;;;;;1.00;1.00;;;;;21.84;41.88;101063.53;5021373;28;45430;-48
2023/07/21 01:03:29;;;;;;;;;1.33;1.33;;;;;21.83;42.01;101067.22;5020218;28;72858;-45
2023/07/21 01:05:55;;;;;;;;;1.00;1.00;;;;;21.78;41.90;101072.22;5021146;28;45265;-49
2023/07/21 01:08:21;;;;;;;;;3.00;2.00;;;;;21.75;42.03;101064.38;5021375;28;45468;-46
2023/07/21 01:10:47;;;;;;;;;2.00;2.00;;;;;21.73;41.99;101066.38;5019833;28;45420;-46
2023/07/21 01:13:13;;;;;;;;;2.00;2.00;;;;;21.71;41.67;101068.38;5021141;28;47131;-48
2023/07/21 01:15:44;;;;;;;;;4.67;3.00;;;;;21.69;42.36;101071.22;5019620;28;49570;-49
2023/07/21 01:18:10;;;;;;;;;3.67;2.00;;;;;21.63;41.84;101069.94;5021243;28;45538;-47
2023/07/21 01:20:36;;;;;;;;;3.00;3.00;;;;;21.57;41.92;101065.09;5021079;28;45298;-48
2023/07/21 01:23:06;;;;;;;;;1.33;1.33;;;;;21.52;42.44;101069.19;5021092;28;45294;-45
2023/07/21 01:25:32;;;;;;;;;2.67;2.00;;;;;21.49;42.74;101073.88;5020755;28;45447;-47
2023/07/21 01:27:58;;;;;;;;;5.00;3.33;;;;;21.49;42.97;101073.03;5019528;28;45359;-48
2023/07/21 01:30:24;;;;;;;;;2.00;2.00;;;;;21.45;43.61;101077.88;5018884;28;66911;-45
2023/07/21 01:32:50;;;;;;;;;2.67;2.67;;;;;21.41;44.29;101076.44;5019374;28;47122;-47
2023/07/21 01:35:17;;;;;;;;;3.67;1.33;;;;;21.39;43.93;101072.16;5019427;28;45407;-48
2023/07/21 01:37:44;;;;;;;;;2.00;2.00;;;;;21.35;44.53;101068.88;5019697;28;45217;-49
2023/07/21 01:40:13;;;;;;;;;2.33;1.00;;;;;21.27;44.39;101069.59;5020867;28;45404;-45
2023/07/21 01:42:39;;;;;;;;;3.67;2.33;;;;;21.23;44.80;101067.31;5019392;28;46508;-45
2023/07/21 01:45:06;;;;;;;;;2.00;2.00;;;;;21.17;44.88;101057.88;5019746;28;45397;-47
2023/07/21 01:47:32;;;;;;;;;2.00;2.00;;;;;21.13;45.78;101053.75;5020875;28;45320;-45
2023/07/21 01:49:58;;;;;;;;;2.00;2.00;;;;;21.08;45.89;101045.22;5019799;28;45384;-49
2023/07/21 01:52:24;;;;;;;;;2.00;2.00;;;;;21.05;46.43;101049.06;5019049;28;46254;-45
2023/07/21 01:54:52;;;;;;;;;1.00;1.00;;;;;21.03;47.10;101047.47;5019148;28;45422;-46
2023/07/21 01:57:24;;;;;;;;;2.00;2.00;;;;;21.01;46.92;101035.97;5019348;28;45353;-45
2023/07/21 01:59:50;;;;;;;;;2.00;2.00;;;;;20.96;46.48;101047.19;5019332;28;45317;-47
2023/07/21 02:02:17;;;;;;;;;1.33;1.33;;;;;20.88;47.14;101041.63;5018357;28;66379;-48
2023/07/21 02:04:50;;;;;;;;;3.00;3.00;;;;;20.86;47.36;101049.00;5019164;28;45419;-49
2023/07/21 02:07:15;;;;;;;;;2.00;2.00;;;;;20.81;47.49;101044.03;5020242;28;45416;-48
2023/07/21 02:09:41;;;;;;;;;1.67;1.67;;;;;20.75;46.69;101039.16;5020157;28;45399;-49
2023/07/21 02:12:07;;;;;;;;;2.00;1.00;;;;;20.66;47.02;101047.06;5019266;28;68177;-48
2023/07/21 02:14:32;;;;;;;;;2.00;2.00;;;;;20.62;47.84;101042.06;5020262;28;45427;-49
2023/07/21 02:16:57;;;;;;;;;2.00;2.00;;;;;20.57;47.39;101034.38;5020529;28;45433;-49
2023/07/21 02:19:23;;;;;;;;;1.00;1.00;;;;;20.52;47.60;101033.06;5020483;28;69306;-49
2023/07/21 02:21:48;;;;;;;;;5.00;3.00;;;;;20.49;47.35;101039.59;5020628;28;46985;-47
2023/07/21 02:24:13;;;;;;;;;1.00;1.00;;;;;20.41;48.23;101036.72;5019407;28;69614;-47
2023/07/21 02:26:38;;;;;;;;;2.33;2.00;;;;;20.37;48.07;101036.13;5019268;28;62252;-48
2023/07/21 02:29:05;;;;;;;;;2.00;2.00;;;;;20.35;48.79;101040.84;5020078;28;56319;-48
2023/07/21 02:31:31;;;;;;;;;2.00;2.00;;;;;20.35;48.73;101042.66;5019925;28;45387;-44
2023/07/21 02:33:56;;;;;;;;;2.33;2.33;;;;;20.33;48.87;101030.13;5019860;28;45269;-48
2023/07/21 02:36:21;;;;;;;;;4.00;3.00;;;;;20.32;48.95;101033.84;5019129;28;65250;-45
2023/07/21 02:38:46;;;;;;;;;3.00;2.33;;;;;20.31;48.29;101042.94;5020045;28;45262;-45
2023/07/21 02:41:12;;;;;;;;;3.00;3.00;;;;;20.28;49.51;101039.66;5019014;28;69421;-45
2023/07/21 02:43:38;;;;;;;;;3.00;3.00;;;;;20.26;50.19;101047.00;5019251;28;65775;-45
2023/07/21 02:46:04;;;;;;;;;2.00;2.00;;;;;20.23;49.29;101044.59;5018697;28;45475;-45
2023/07/21 02:48:30;;;;;;;;;5.67;2.33;;;;;20.17;50.09;101046.00;5019926;28;45571;-45
2023/07/21 02:50:55;;;;;;;;;4.00;4.00;;;;;20.11;50.92;101033.03;5018430;28;47129;-45
2023/07/21 02:53:21;;;;;;;;;4.00;4.00;;;;;20.08;50.45;101041.41;5019724;28;45389;-45
2023/07/21 02:55:47;;;;;;;;;2.33;2.33;;;;;20.04;50.84;101042.63;5009543;28;45261;-46
2023/07/21 02:58:14;;;;;;;;;4.00;4.00;;;;;20.02;51.20;101041.91;5017815;28;70621;-47
2023/07/21 03:00:40;;;;;;;;;3.67;3.67;;;;;20.03;50.62;101044.47;5021342;28;46982;-47
2023/07/21 03:03:07;;;;;;;;;4.67;3.00;;;;;19.94;51.72;101038.03;5022410;28;64937;-45
2023/07/21 03:05:33;;;;;;;;;3.00;3.00;;;;;19.90;51.31;101033.88;5022012;28;45439;-45
2023/07/21 03:07:59;;;;;;;;;3.00;3.00;;;;;19.89;51.12;101036.72;5023163;28;45475;-45
2023/07/21 03:10:24;;;;;;;;;2.67;2.33;;;;;19.89;51.53;101034.03;5022635;28;46386;-45
2023/07/21 03:12:50;;;;;;;;;4.00;4.00;;;;;19.86;51.24;101034.28;5021659;28;45481;-45
2023/07/21 03:15:15;;;;;;;;;2.33;2.33;;;;;19.81;50.73;101026.56;5023126;28;45411;-45
2023/07/21 03:17:41;;;;;;;;;3.00;2.00;;;;;19.76;51.27;101036.88;5022630;28;54611;-45
2023/07/21 03:20:14;;;;;;;;;4.00;3.00;;;;;19.69;51.99;101035.72;5022876;28;45908;-46
2023/07/21 03:22:40;;;;;;;;;3.00;3.00;;;;;19.65;52.70;101038.66;5022916;28;45360;-45
2023/07/21 03:25:07;;;;;;;;;3.33;2.67;;;;;19.65;52.06;101040.50;5021359;28;45483;-44
2023/07/21 03:27:33;;;;;;;;;7.33;3.00;;;;;19.64;52.38;101031.53;5022688;28;45408;-45
2023/07/21 03:29:58;;;;;;;;;2.00;2.00;;;;;19.63;52.05;101037.94;5022612;28;45302;-45
2023/07/21 03:32:24;;;;;;;;;2.67;2.67;;;;;19.60;52.39;101040.03;5021840;28;65634;-46
2023/07/21 03:34:49;;;;;;;;;6.00;3.33;;;;;19.59;52.93;101032.91;5005059;28;45773;-46
2023/07/21 03:37:14;;;;;;;;;6.00;5.00;;;;;19.58;53.44;101029.38;5022885;28;45473;-45
2023/07/21 03:39:44;;;;;;;;;2.67;2.67;;;;;19.60;53.42;101038.19;5022435;28;46213;-46
2023/07/21 03:42:09;;;;;;;;;2.00;2.00;;;;;19.60;52.65;101032.78;5022531;28;45374;-45
2023/07/21 03:44:34;;;;;;;;;2.33;2.33;;;;;19.59;52.82;101041.84;5021654;28;68856;-47
2023/07/21 03:46:59;;;;;;;;;4.33;4.00;;;;;19.59;53.00;101046.41;5021808;28;66023;-45
2023/07/21 03:49:25;;;;;;;;;3.33;3.33;;;;;19.59;53.30;101052.66;5022190;28;57133;-45
2023/07/21 03:51:50;;;;;;;;;2.67;2.67;;;;;19.59;53.19;101054.50;5020936;28;57710;-48
2023/07/21 03:54:16;;;;;;;;;3.33;3.33;;;;;19.58;52.70;101048.25;5020704;28;67952;-44
2023/07/21 03:56:41;;;;;;;;;3.00;3.00;;;;;19.58;52.91;101052.78;5012206;28;68846;-45
2023/07/21 03:59:06;;;;;;;;;3.67;2.00;;;;;19.57;52.50;101049.25;5022301;28;45665;-46
2023/07/21 04:01:32;;;;;;;;;4.00;4.00;;;;;19.51;53.25;101053.28;5022195;28;45585;-48
2023/07/21 04:03:57;;;;;;;;;4.33;3.67;;;;;19.45;53.44;101055.66;5021487;28;65018;-46
2023/07/21 04:06:24;;;;;;;;;6.00;5.00;;;;;19.43;53.11;101045.00;5021535;28;62334;-47
2023/07/21 04:08:51;;;;;;;;;5.00;5.00;;;;;19.44;53.54;101043.19;5021757;28;47197;-46
2023/07/21 04:11:16;;;;;;;;;5.67;5.00;;;;;19.42;53.56;101051.38;5021183;28;45294;-45
2023/07/21 04:13:42;;;;;;;;;5.00;4.00;;;;;19.41;53.78;101043.41;5021966;28;45396;-46
2023/07/21 04:16:07;;;;;;;;;5.00;5.00;;;;;19.43;53.72;101046.84;5021314;28;67676;-45
2023/07/21 04:18:32;;;;;;;;;5.00;5.00;;;;;19.42;53.43;101048.66;5021789;28;46145;-46
2023/07/21 04:20:58;;;;;;;;;4.33;4.33;;;;;19.40;53.63;101050.66;5022230;28;45216;-47
2023/07/21 04:23:23;;;;;;;;;4.33;4.33;;;;;19.38;53.31;101054.47;5021090;28;64416;-46
2023/07/21 04:25:48;;;;;;;;;4.33;3.00;;;;;19.32;53.26;101050.41;5021963;28;45373;-48
2023/07/21 04:28:14;;;;;;;;;4.00;3.33;;;;;19.31;54.27;101054.13;5020293;28;47015;-46
2023/07/21 04:30:39;;;;;;;;;2.00;2.00;;;;;19.34;53.64;101052.00;5021090;28;67883;-45
2023/07/21 04:33:04;;;;;;;;;2.67;2.67;;;;;19.31;52.61;101051.44;5021766;28;45541;-47
2023/07/21 04:35:30;;;;;;;;;3.00;3.00;;;;;19.26;53.11;101057.19;5020909;28;69047;-48
2023/07/21 04:37:55;;;;;;;;;3.33;1.67;;;;;19.23;52.90;101046.66;5020738;28;71416;-48
2023/07/21 04:40:21;;;;;;;;;2.00;2.00;;;;;19.20;53.16;101055.00;5021599;28;45458;-46
2023/07/21 04:42:46;;;;;;;;;2.00;2.00;;;;;19.20;52.53;101041.50;5021867;28;45423;-46
2023/07/21 04:45:11;;;;;;;;;3.00;2.00;;;;;19.18;52.99;101041.66;5021894;28;45428;-47
2023/07/21 04:47:39;;;;;;;;;2.00;2.00;;;;;19.21;53.22;101039.69;5021260;28;48279;-46
2023/07/21 04:50:05;;;;;;;;;2.67;2.00;;;;;19.24;52.85;101025.94;5021472;28;45285;-45
2023/07/21 04:52:30;;;;;;;;;5.00;3.33;;;;;19.23;53.88;101043.09;5021481;28;45280;-46
2023/07/21 04:54:55;;;;;;;;;4.67;3.00;;;;;19.11;52.99;101053.06;5020907;28;54840;-45
2023/07/21 04:57:21;;;;;;;;;3.00;3.00;;;;;19.08;54.09;101043.38;5021047;28;50578;-45
2023/07/21 04:59:46;;;;;;;;;2.33;2.33;;;;;18.99;53.30;101033.38;5020576;28;68549;-47
2023/07/21 05:02:11;;;;;;;;;4.00;3.00;;;;;18.94;53.29;101025.69;5021419;28;45230;-46
2023/07/21 05:04:37;;;;;;;;;4.00;3.00;;;;;18.98;53.52;101029.81;5020556;28;66069;-46
2023/07/21 05:07:03;;;;;;;;;3.00;3.00;;;;;19.06;53.08;101029.19;5021062;28;45301;-45
2023/07/21 05:09:29;;;;;;;;;3.00;3.00;;;;;19.13;53.59;101040.31;5019724;28;45461;-48
2023/07/21 05:11:54;;;;;;;;;4.00;2.33;;;;;19.12;53.27;101041.31;5019679;28;45419;-45
2023/07/21 05:14:20;;;;;;;;;3.00;3.00;;;;;19.16;53.19;101040.06;5020390;28;63890;-46
2023/07/21 05:16:45;;;;;;;;;3.00;3.00;;;;;19.17;53.33;101055.25;5020140;28;71689;-46
2023/07/21 05:19:10;;;;;;;;;3.00;3.00;;;;;19.21;53.43;101054.00;5021086;28;45312;-46
2023/07/21 05:21:36;;;;;;;;;2.33;2.33;;;;;19.27;53.38;101052.69;5020053;28;67609;-47
2023/07/21 05:24:02;;;;;;;;;3.67;3.67;;;;;19.30;53.41;101039.78;5021145;28;45415;-46
2023/07/21 05:26:28;;;;;;;;;2.00;2.00;;;;;19.32;53.10;101051.28;5020626;28;46063;-46
2023/07/21 05:28:56;;;;;;;;;5.00;4.00;;;;;19.36;53.04;101045.63;5021039;28;45359;-45
2023/07/21 05:31:22;;;;;;;;;4.00;3.00;;;;;19.41;53.00;101046.09;5020965;28;45491;-45
2023/07/21 05:33:48;;;;;;;;;3.00;3.00;;;;;19.41;52.94;101032.63;5020824;28;45491;-46
2023/07/21 05:36:13;;;;;;;;;3.33;3.33;;;;;19.38;52.82;101032.88;5020505;28;46228;-44
2023/07/21 05:38:38;;;;;;;;;3.00;3.00;;;;;19.40;52.54;101028.22;5019757;28;70173;-46
2023/07/21 05:41:07;;;;;;;;;3.00;3.00;;;;;19.38;52.51;101046.38;5020767;28;45467;-45
2023/07/21 05:43:32;;;;;;;;;3.00;3.00;;;;;19.41;52.60;101043.41;5019877;28;69430;-46
2023/07/21 05:45:58;;;;;;;;;2.00;2.00;;;;;19.44;52.38;101049.41;5018022;28;75398;-46
2023/07/21 05:48:25;;;;;;;;;2.00;2.00;;;;;19.48;52.37;101052.72;5020801;28;45329;-48
2023/07/21 05:50:51;;;;;;;;;3.00;3.00;;;;;19.48;52.23;101053.56;5020829;28;45376;-45
2023/07/21 05:53:17;;;;;;;;;2.33;2.33;;;;;19.45;51.74;101043.03;5020837;28;45305;-48
2023/07/21 05:55:43;;;;;;;;;4.00;2.00;;;;;19.45;52.01;101040.34;5009976;28;46304;-47
2023/07/21 05:58:10;;;;;;;;;5.67;3.33;;;;;19.47;51.86;101046.44;5020628;28;45358;-48
2023/07/21 06:00:39;;;;;;;;;4.00;3.00;;;;;19.49;52.13;101043.66;5020671;28;45447;-46
2023/07/21 06:03:07;;;;;;;;;3.00;3.00;;;;;19.54;51.88;101054.88;5019205;28;45345;-46
2023/07/21 06:05:36;;;;;;;;;3.00;2.33;;;;;19.58;51.83;101061.75;5020225;28;45416;-47
2023/07/21 06:08:04;;;;;;;;;4.00;3.00;;;;;19.61;51.94;101047.16;5019032;28;45501;-49
2023/07/21 06:10:33;;;;;;;;;3.00;3.00;;;;;19.64;51.88;101047.72;5020295;28;45224;-45
2023/07/21 06:12:58;;;;;;;;;4.00;3.00;;;;;19.73;51.37;101047.94;5019964;28;52002;-45
2023/07/21 06:15:24;;;;;;;;;4.00;3.67;;;;;19.80;51.31;101038.31;5020039;28;45329;-46
2023/07/21 06:17:50;;;;;;;;;4.67;4.00;;;;;19.89;51.13;101050.22;5020267;28;45258;-45
2023/07/21 06:20:15;;;;;;;;;3.33;3.33;;;;;20.02;51.50;101055.41;5020152;28;45388;-47
2023/07/21 06:22:40;;;;;;;;;5.00;4.00;;;;;20.14;51.26;101054.34;5019649;28;65455;-47
2023/07/21 06:25:06;;;;;;;;;4.00;3.00;;;;;20.17;50.98;101057.63;5019851;28;46101;-45
2023/07/21 06:27:31;;;;;;;;;5.00;3.67;;;;;20.23;51.14;101060.78;5019686;28;45388;-47
2023/07/21 06:29:57;;;;;;;;;5.00;4.33;;;;;20.26;50.29;101055.13;5020030;28;47494;-45
2023/07/21 06:32:23;;;;;;;;;5.00;5.00;;;;;20.20;50.93;101051.13;5017033;28;54601;-46
2023/07/21 06:34:49;;;;;;;;;7.00;5.00;;;;;20.19;50.70;101054.81;5018227;28;45294;-45
2023/07/21 06:37:14;;;;;;;;;6.00;4.33;;;;;20.12;50.65;101056.34;5019029;28;45661;-45
2023/07/21 06:39:39;;;;;;;;;6.00;5.00;;;;;20.14;51.29;101059.75;5018761;28;66761;-48
2023/07/21 06:42:07;;;;;;;;;6.67;6.67;;;;;20.21;50.63;101068.16;5018610;28;45352;-47
2023/07/21 06:44:34;;;;;;;;;7.00;7.00;;;;;20.27;50.87;101068.50;5019666;28;47078;-45
2023/07/21 06:46:59;;;;;;;;;7.33;6.33;;;;;20.29;50.88;101060.28;5018588;28;45594;-45
2023/07/21 06:49:25;;;;;;;;;5.67;5.67;;;;;20.32;50.23;101052.75;5019751;28;45336;-47
2023/07/21 06:51:50;;;;;;;;;7.00;5.67;;;;;20.38;50.32;101058.63;5019670;28;48995;-45
2023/07/21 06:54:15;;;;;;;;;6.00;4.00;;;;;20.43;50.65;101049.09;5017418;28;45478;-45
2023/07/21 06:56:41;;;;;;;;;6.67;6.00;;;;;20.54;50.29;101048.16;5010168;28;56494;-46
2023/07/21 06:59:06;;;;;;;;;5.67;5.33;;;;;20.57;50.32;101053.31;5019202;28;54094;-46
2023/07/21 07:01:31;;;;;;;;;5.33;5.00;;;;;20.57;49.94;101053.31;5019260;28;63217;-45
2023/07/21 07:03:58;;;;;;;;;5.00;5.00;;;;;20.62;50.24;101045.66;5018195;28;45482;-45
2023/07/21 07:06:23;;;;;;;;;8.33;6.67;;;;;20.74;49.98;101043.72;5019363;28;45566;-44
2023/07/21 07:08:49;;;;;;;;;8.00;8.00;;;;;20.84;50.07;101049.16;5018426;28;65545;-44
2023/07/21 07:11:14;;;;;;;;;10.00;6.67;;;;;20.91;50.53;101055.72;5019633;28;45426;-44
2023/07/21 07:13:39;;;;;;;;;5.00;5.00;;;;;21.07;49.60;101049.78;5018818;28;56412;-46
2023/07/21 07:16:05;;;;;;;;;9.00;7.00;;;;;21.17;49.09;101044.38;5018540;28;70772;-46
2023/07/21 07:18:30;;;;;;;;;7.00;7.00;;;;;21.29;49.06;101050.53;5019245;28;45393;-44
2023/07/21 07:20:56;;;;;;;;;6.33;6.00;;;;;21.96;49.56;101059.63;5019138;28;51569;-46
2023/07/21 07:23:23;;;;;;;;;7.33;7.33;;;;;23.22;47.78;101050.31;5018930;28;46195;-44
2023/07/21 07:25:52;;;;;;;;;5.67;5.67;;;;;23.85;46.06;101052.09;5019425;28;45245;-46
2023/07/21 07:28:19;;;;;;;;;7.33;7.00;;;;;23.81;45.39;101052.59;5019144;28;45435;-47
2023/07/21 07:30:45;;;;;;;;;7.67;6.00;;;;;24.00;45.30;101056.97;5019606;28;45632;-47
2023/07/21 07:33:11;;;;;;;;;7.00;7.00;;;;;24.16;44.70;101058.94;5018983;28;45477;-46
2023/07/21 07:35:37;;;;;;;;;8.67;7.67;;;;;24.83;44.80;101058.31;5019069;28;45313;-46
2023/07/21 07:38:02;;;;;;;;;6.67;6.33;;;;;26.62;42.53;101056.84;5018114;28;45418;-45
2023/07/21 07:40:28;;;;;;;;;5.00;5.00;;;;;28.44;40.13;101059.16;5018826;28;45486;-45
2023/07/21 07:42:53;;;;;;;;;7.33;6.67;;;;;29.98;37.33;101060.94;5018773;28;53577;-45
2023/07/21 07:45:18;;;;;;;;;9.00;9.00;;;;;29.64;36.24;101059.78;5018342;28;67168;-44
2023/07/21 07:47:44;;;;;;;;;8.33;8.00;;;;;29.45;36.09;101066.75;5022387;28;46091;-44
2023/07/21 07:50:11;;;;;;;;;10.67;8.67;;;;;29.75;35.47;101072.09;5022505;28;45387;-45
2023/07/21 07:52:37;;;;;;;;;8.67;8.00;;;;;30.44;35.94;101074.13;5022164;28;46113;-46
2023/07/21 07:55:02;;;;;;;;;10.67;10.67;;;;;31.02;34.75;101070.19;5022201;28;45430;-46
2023/07/21 07:57:28;;;;;;;;;15.67;10.33;;;;;31.58;34.05;101071.00;5021148;28;45332;-47
2023/07/21 07:59:54;;;;;;;;;10.00;8.33;;;;;34.07;33.16;101075.41;5021491;28;45619;-47
2023/07/21 08:02:19;;;;;;;;;14.00;11.33;;;;;36.45;30.19;101070.84;5021055;28;45397;-49
2023/07/21 08:04:44;;;;;;;;;13.00;12.67;;;;;38.10;27.50;101069.22;5022313;28;45358;-49
2023/07/21 08:07:10;;;;;;;;;12.33;10.00;;;;;39.53;26.46;101079.56;5022141;28;45285;-47
2023/07/21 08:09:35;;;;;;;;;11.33;9.67;;;;;40.69;24.14;101084.56;5021238;28;67634;-47
2023/07/21 08:12:00;;;;;;;;;11.67;11.67;;;;;41.66;23.74;101083.97;5020563;28;47373;-45
2023/07/21 08:14:26;;;;;;;;;13.00;11.00;;;;;42.55;21.73;101082.72;5021242;28;67063;-47
2023/07/21 08:16:51;;;;;;;;;18.67;15.67;;;;;43.04;20.96;101088.63;5021270;28;67635;-46
2023/07/21 08:19:18;;;;;;;;;9.67;9.00;;;;;43.82;20.53;101089.78;5021058;28;68731;-48
2023/07/21 08:21:44;;;;;;;;;9.67;8.00;;;;;44.25;19.48;101092.72;5020423;28;46372;-45
2023/07/21 08:24:10;;;;;;;;;8.67;8.00;;;;;43.24;19.08;101096.09;5021576;28;45452;-46
2023/07/21 08:26:35;;;;;;;;;10.00;10.00;;;;;42.38;20.37;101094.22;5021937;28;45352;-47
2023/07/21 08:29:00;;;;;;;;;7.00;7.00;;;;;42.27;20.51;101087.84;5021184;28;69392;-46
2023/07/21 08:31:26;;;;;;;;;8.00;8.00;;;;;43.00;20.66;101088.41;5021714;28;46223;-47
2023/07/21 08:33:53;;;;;;;;;6.50;6.50;;;;;43.87;19.82;101098.09;5020831;28;72426;-48
2023/07/21 08:36:18;;;;;;;;;7.75;7.75;;;;;44.67;19.12;101083.81;5021050;28;65688;-48
2023/07/21 08:38:43;;;;;;;;;8.50;6.50;;;;;45.29;17.39;101086.59;5020546;28;69893;-46
2023/07/21 08:41:13;;;;;;;;;6.75;6.75;;;;;45.48;18.09;101086.59;5021545;28;47156;-44
2023/07/21 08:43:39;;;;;;;;;9.00;7.33;;;;;44.32;17.63;101083.97;5020377;28;45633;-45
2023/07/21 08:46:08;;;;;;;;;9.67;7.00;;;;;42.22;19.16;101087.84;4990430;28;45508;-48
2023/07/21 08:48:34;;;;;;;;;7.25;7.00;;;;;41.72;19.06;101089.56;5021629;28;45542;-45
2023/07/21 08:50:59;;;;;;;;;8.00;8.00;;;;;41.24;19.48;101086.97;5003584;28;46286;-48
2023/07/21 08:53:25;;;;;;;;;7.25;7.00;;;;;41.24;19.81;101095.34;5020976;28;45370;-45
2023/07/21 08:55:53;;;;;;;;;6.00;6.00;;;;;41.82;19.79;101095.16;5021575;28;45294;-47
2023/07/21 08:58:19;;;;;;;;;4.00;4.00;;;;;42.80;18.70;101095.78;5019562;28;45570;-47
2023/07/21 09:00:46;;;;;;;;;9.00;7.25;;;;;43.47;18.52;101086.16;5016724;28;47486;-47
2023/07/21 09:03:20;;;;;;;;;9.00;6.00;;;;;44.26;16.85;101090.75;5012063;28;45462;-44
2023/07/21 09:05:46;;;;;;;;;7.50;5.75;;;;;44.97;17.09;101073.31;5021416;28;45382;-47
2023/07/21 09:08:28;;;;;;;;;5.00;5.00;;;;;45.63;15.60;101084.69;5021034;28;45576;-47
2023/07/21 09:10:58;;;;;;;;;8.75;6.00;;;;;45.91;16.12;101088.44;5019837;28;46344;-49
2023/07/21 09:13:23;;;;;;;;;5.75;5.75;;;;;46.21;15.31;101081.38;5019680;28;45470;-46
2023/07/21 09:15:56;;;;;;;;;6.50;6.25;;;;;46.14;15.19;101089.38;5021234;28;45276;-49
2023/07/21 09:18:29;;;;;;;;;4.00;4.00;;;;;46.19;14.85;101080.81;5020848;28;45478;-49
2023/07/21 09:20:55;;;;;;;;;5.50;5.50;;;;;46.24;15.17;101082.72;5019469;28;46458;-46
2023/07/21 09:23:20;;;;;;;;;5.75;5.00;;;;;46.59;15.97;101085.94;5020634;28;45375;-47
2023/07/21 09:25:50;;;;;;;;;5.00;5.00;;;;;46.68;14.45;101080.47;5019700;28;45428;-47
2023/07/21 09:28:16;;;;;;;;;6.25;5.00;;;;;46.79;14.84;101079.06;5020833;28;45274;-50
2023/07/21 09:30:50;;;;;;;;;5.50;4.25;;;;;46.58;15.16;101083.47;5020200;28;65578;-45
2023/07/21 09:33:20;;;;;;;;;4.75;3.50;;;;;44.05;14.95;101087.34;5019211;28;45348;-45
2023/07/21 09:35:46;;;;;;;;;4.00;4.00;;;;;43.02;16.38;101088.09;5020964;28;45350;-49
2023/07/21 09:38:12;;;;;;;;;4.25;4.25;;;;;42.72;17.25;101089.94;5020196;28;52491;-45
2023/07/21 09:40:41;;;;;;;;;6.00;4.75;;;;;43.41;16.92;101090.09;5019498;28;48047;-54
2023/07/21 09:43:09;;;;;;;;;3.75;3.75;;;;;44.10;15.55;101084.47;5021048;28;45335;-49
2023/07/21 09:45:34;;;;;;;;;3.00;3.00;;;;;44.63;15.48;101089.22;5020971;28;45810;-45
2023/07/21 09:48:01;;;;;;;;;3.50;2.75;;;;;44.43;15.54;101079.94;5018903;28;57346;-45
2023/07/21 09:50:26;;;;;;;;;3.25;3.25;;;;;42.30;16.45;101097.63;5020674;28;45451;-48
2023/07/21 09:52:53;;;;;;;;;3.00;3.00;;;;;39.83;17.79;101086.53;5020154;28;52904;-47
2023/07/21 09:55:20;;;;;;;;;4.50;3.00;;;;;40.10;18.35;101097.59;5011213;28;45393;-48
2023/07/21 09:57:48;;;;;;;;;2.25;2.25;;;;;39.86;17.70;101094.38;5019361;28;45206;-48
2023/07/21 10:00:16;;;;;;;;;3.00;3.00;;;;;38.11;19.14;101090.34;5020250;28;46976;-48
2023/07/21 10:02:46;;;;;;;;;3.00;3.00;;;;;37.50;19.88;101085.44;5020315;28;45471;-49
2023/07/21 10:05:13;;;;;;;;;3.75;3.75;;;;;38.75;19.07;101099.28;5020194;28;45347;-47
2023/07/21 10:07:46;;;;;;;;;4.50;4.50;;;;;40.08;18.07;101097.06;5020277;28;45355;-45
2023/07/21 10:10:12;;;;;;;;;4.00;4.00;;;;;40.75;17.75;101097.41;5018830;28;46244;-48
2023/07/21 10:12:52;;;;;;;;;2.75;2.75;;;;;41.37;17.26;101091.19;5019517;28;61663;-45
2023/07/21 10:15:28;;;;;;;;;4.25;2.75;;;;;42.02;16.69;101093.47;5020207;28;45272;-47
2023/07/21 10:17:58;;;;;;;;;2.25;2.25;;;;;42.33;16.58;101091.47;5020165;28;45402;-45
2023/07/21 10:20:56;;;;;;;;;3.00;3.00;;;;;39.91;17.20;101099.97;5020061;28;45526;-48
2023/07/21 10:23:26;;;;;;;;;3.00;3.00;;;;;38.96;17.86;101092.91;5029410;28;45385;-47
2023/07/21 10:25:52;;;;;;;;;5.00;3.00;;;;;38.94;17.90;101097.03;5002351;28;45417;-49
2023/07/21 10:28:30;;;;;;;;;2.75;2.75;;;;;37.52;19.03;101093.50;5019773;28;45330;-47
2023/07/21 10:31:21;;;;;;;;;2.00;2.00;;;;;37.98;19.78;101096.22;5018749;28;45488;-46
2023/07/21 10:34:05;;;;;;;;;3.75;3.75;;;;;38.94;18.89;101094.25;5019718;28;45347;-45
2023/07/21 10:36:58;;;;;;;;;2.50;2.50;;;;;38.21;18.63;101098.81;5019943;28;45460;-46
2023/07/21 10:39:34;;;;;;;;;2.50;2.50;;;;;37.70;19.09;101092.41;5021191;28;45381;-48
2023/07/21 10:42:03;;;;;;;;;2.25;2.25;;;;;38.02;19.32;101091.88;5018385;28;46191;-48
2023/07/21 10:44:45;;;;;;;;;2.25;2.25;;;;;38.67;18.73;101089.44;5019753;28;45242;-46
2023/07/21 10:47:12;;;;;;;;;2.50;2.50;;;;;38.79;18.46;101083.81;5019831;28;45308;-49
2023/07/21 10:49:38;;;;;;;;;2.75;2.25;;;;;38.21;18.48;101081.31;5019635;28;45393;-47
2023/07/21 10:52:04;;;;;;;;;4.75;4.00;;;;;37.74;19.05;101085.28;5018254;28;45875;-47
2023/07/21 10:54:30;;;;;;;;;2.50;2.50;;;;;37.24;19.14;101087.69;5017809;28;45556;-48
2023/07/21 10:56:55;;;;;;;;;3.00;3.00;;;;;36.85;19.56;101081.13;5018683;28;45439;-44
2023/07/21 10:59:21;;;;;;;;;4.50;2.50;;;;;36.43;19.76;101087.69;5019555;28;45566;-48
2023/07/21 11:01:49;;;;;;;;;4.00;4.00;;;;;36.09;19.82;101088.28;5019591;28;46953;-46
2023/07/21 11:04:16;;;;;;;;;3.00;2.00;;;;;35.64;20.90;101083.25;5019384;28;45366;-46
2023/07/21 11:06:43;;;;;;;;;2.50;2.50;;;;;35.00;20.86;101088.44;5018436;28;45368;-45
2023/07/21 11:09:11;;;;;;;;;3.75;3.75;;;;;34.93;20.09;101080.25;5019395;28;45375;-47
2023/07/21 11:11:39;;;;;;;;;5.75;5.25;;;;;35.15;21.53;101090.78;5019428;28;46366;-47
2023/07/21 11:14:08;;;;;;;;;4.00;2.00;;;;;35.53;20.83;101078.56;5019270;28;45547;-50
2023/07/21 11:16:34;;;;;;;;;1.75;1.75;;;;;35.88;19.96;101073.13;5019380;28;45535;-49
2023/07/21 11:18:59;;;;;;;;;2.75;2.75;;;;;36.01;19.93;101073.94;5019437;28;45330;-48
2023/07/21 11:21:24;;;;;;;;;0.75;0.75;;;;;35.72;19.96;101071.88;5019597;28;73602;-49